Etusivu
METAR-TAF:

METAR-TAF

Lentoasemat :

Kirkkoniemi, Norja

Leveyspiiri: 69-44N, Pituuspiiri: 029-54E, korkeus merenpinnasta: 9 m

Tämänhetkinen sää

Tämä raportti tehtiin 23 minuuttia sitten, kello 22.50 UTC
Tuuli 5 kn etelästä
Lämpötila -8°C
Kosteus 92%
Ilmanpaine 997 hPa
Näkyvyys: 6000 m

METAR: ENKR 172250Z 17005KT 6000 VV002 M08/M09 Q0997 RMK WIND 731FT 31004KT

Aika: 00:13 (23:13 UTC)

Sääennuste

Tämä raportti tehtiin 3 tuntia ja 13 minuuttia sitten, kello 20.00 UTC
Ennuste voimassa 17. päivästä klo 21 UTC - 18. päivään klo 06 UTC
Tuuli 5 kn etelästä/lounaasta
Näkyvyys: 0300 m
100 ft:n korkeudessa
jäätävää sumua
Ajoittain
17. päivästä klo 21 UTC - 18. päivään klo 06 UTC
Näkyvyys 10 km tai enemmän
Hajanaisia pilviä 100 ft:n korkeudessa

TAF: ENKR 172000Z 1721/1806 20005KT 0300 FZFG VV001 TEMPO 1721/1806 9999 SCT001

Säähavainnot ja -ennusteet yli 4000 lentoasemalta (METAR- ja TAF-raportit).

Käytössä olevat sääasemat on merkitty karttaan keltaisilla ja punaisilla pisteillä.

Aseta hiiri pisteen päälle nähdäksesi sääaseman nimen.

Klikkaa sitten nähdäksesi säähavainnot ja -ennusteet.

Kartan vaihtaminen: klikkaa mustalla rastilla varustettuja vihreitä pisteitä, niin voit zoomata sisään; viivalla varustettua vihreää pistettä, niin voit zoomata ulos tai vihreitä nuolia, niin pääset viereisille kartoille.


METAR-TAF: